sensor_id;sensor_type;location;lat;lon;timestamp;P1;durP1;ratioP1;P2;durP2;ratioP2
3081;SDS011;1551;51.046;7.010;2022-10-16T00:01:46;7.90;;;4.10;;
3081;SDS011;1551;51.046;7.010;2022-10-16T00:04:35;4.72;;;3.60;;
3081;SDS011;1551;51.046;7.010;2022-10-16T00:07:24;6.35;;;3.90;;
3081;SDS011;1551;51.046;7.010;2022-10-16T00:10:13;7.80;;;4.45;;
3081;SDS011;1551;51.046;7.010;2022-10-16T00:13:02;10.10;;;5.43;;
3081;SDS011;1551;51.046;7.010;2022-10-16T00:15:54;8.40;;;5.33;;
3081;SDS011;1551;51.046;7.010;2022-10-16T00:18:44;6.63;;;4.30;;
3081;SDS011;1551;51.046;7.010;2022-10-16T00:21:33;7.22;;;4.80;;
3081;SDS011;1551;51.046;7.010;2022-10-16T00:24:22;7.55;;;5.35;;
3081;SDS011;1551;51.046;7.010;2022-10-16T00:27:11;8.70;;;5.15;;
3081;SDS011;1551;51.046;7.010;2022-10-16T00:30:00;6.07;;;4.20;;
3081;SDS011;1551;51.046;7.010;2022-10-16T00:32:49;6.00;;;3.20;;
3081;SDS011;1551;51.046;7.010;2022-10-16T00:35:38;6.63;;;3.87;;
3081;SDS011;1551;51.046;7.010;2022-10-16T00:38:27;5.85;;;3.80;;
3081;SDS011;1551;51.046;7.010;2022-10-16T00:41:16;4.20;;;3.17;;
3081;SDS011;1551;51.046;7.010;2022-10-16T00:47:37;3.95;;;2.90;;
3081;SDS011;1551;51.046;7.010;2022-10-16T00:50:33;4.18;;;3.30;;
3081;SDS011;1551;51.046;7.010;2022-10-16T00:53:23;4.38;;;3.38;;
3081;SDS011;1551;51.046;7.010;2022-10-16T00:56:14;3.30;;;2.80;;
3081;SDS011;1551;51.046;7.010;2022-10-16T00:59:03;5.03;;;3.80;;
3081;SDS011;1551;51.046;7.010;2022-10-16T01:02:00;3.20;;;2.50;;
3081;SDS011;1551;51.046;7.010;2022-10-16T01:04:51;4.72;;;3.30;;
3081;SDS011;1551;51.046;7.010;2022-10-16T01:07:53;5.63;;;3.17;;
3081;SDS011;1551;51.046;7.010;2022-10-16T01:11:03;3.38;;;2.78;;
3081;SDS011;1551;51.046;7.010;2022-10-16T01:14:04;6.40;;;2.85;;
3081;SDS011;1551;51.046;7.010;2022-10-16T01:17:02;3.50;;;2.70;;
3081;SDS011;1551;51.046;7.010;2022-10-16T01:20:08;2.83;;;2.40;;
3081;SDS011;1551;51.046;7.010;2022-10-16T01:23:06;3.72;;;2.70;;
3081;SDS011;1551;51.046;7.010;2022-10-16T01:29:31;4.03;;;2.80;;
3081;SDS011;1551;51.046;7.010;2022-10-16T01:32:29;4.53;;;2.65;;
3081;SDS011;1551;51.046;7.010;2022-10-16T01:35:24;4.50;;;2.70;;
3081;SDS011;1551;51.046;7.010;2022-10-16T01:38:17;5.00;;;2.90;;
3081;SDS011;1551;51.046;7.010;2022-10-16T01:41:14;3.72;;;2.78;;
3081;SDS011;1551;51.046;7.010;2022-10-16T01:44:10;4.40;;;2.38;;
3081;SDS011;1551;51.046;7.010;2022-10-16T01:47:05;6.03;;;2.90;;
3081;SDS011;1551;51.046;7.010;2022-10-16T01:49:57;4.60;;;2.35;;
3081;SDS011;1551;51.046;7.010;2022-10-16T01:52:49;4.72;;;2.67;;
3081;SDS011;1551;51.046;7.010;2022-10-16T01:55:41;3.55;;;2.25;;
3081;SDS011;1551;51.046;7.010;2022-10-16T01:58:36;3.50;;;2.47;;
3081;SDS011;1551;51.046;7.010;2022-10-16T02:01:31;6.15;;;3.10;;
3081;SDS011;1551;51.046;7.010;2022-10-16T02:04:32;3.20;;;2.88;;
3081;SDS011;1551;51.046;7.010;2022-10-16T02:07:25;5.88;;;4.03;;
3081;SDS011;1551;51.046;7.010;2022-10-16T02:10:14;5.10;;;3.13;;
3081;SDS011;1551;51.046;7.010;2022-10-16T02:13:05;4.57;;;3.67;;
3081;SDS011;1551;51.046;7.010;2022-10-16T02:16:00;5.00;;;3.17;;
3081;SDS011;1551;51.046;7.010;2022-10-16T02:18:49;3.40;;;2.50;;
3081;SDS011;1551;51.046;7.010;2022-10-16T02:21:46;2.97;;;2.30;;
3081;SDS011;1551;51.046;7.010;2022-10-16T02:24:42;5.45;;;1.83;;
3081;SDS011;1551;51.046;7.010;2022-10-16T02:28:01;3.10;;;1.77;;
3081;SDS011;1551;51.046;7.010;2022-10-16T02:31:00;2.50;;;1.70;;
3081;SDS011;1551;51.046;7.010;2022-10-16T02:33:52;5.40;;;1.90;;
3081;SDS011;1551;51.046;7.010;2022-10-16T02:36:43;3.17;;;1.80;;
3081;SDS011;1551;51.046;7.010;2022-10-16T02:39:34;4.45;;;1.80;;
3081;SDS011;1551;51.046;7.010;2022-10-16T02:42:27;2.28;;;1.60;;
3081;SDS011;1551;51.046;7.010;2022-10-16T02:45:22;3.00;;;1.60;;
3081;SDS011;1551;51.046;7.010;2022-10-16T02:48:11;2.70;;;1.70;;
3081;SDS011;1551;51.046;7.010;2022-10-16T02:51:01;3.20;;;1.70;;
3081;SDS011;1551;51.046;7.010;2022-10-16T02:53:49;2.72;;;1.92;;
3081;SDS011;1551;51.046;7.010;2022-10-16T02:56:38;4.30;;;1.70;;
3081;SDS011;1551;51.046;7.010;2022-10-16T02:59:27;2.15;;;1.58;;
3081;SDS011;1551;51.046;7.010;2022-10-16T03:02:16;3.20;;;1.70;;
3081;SDS011;1551;51.046;7.010;2022-10-16T03:05:05;2.50;;;1.70;;
3081;SDS011;1551;51.046;7.010;2022-10-16T03:07:55;4.40;;;2.00;;
3081;SDS011;1551;51.046;7.010;2022-10-16T03:10:44;3.30;;;1.90;;
3081;SDS011;1551;51.046;7.010;2022-10-16T03:13:33;3.60;;;1.80;;
3081;SDS011;1551;51.046;7.010;2022-10-16T03:16:22;4.10;;;1.70;;
3081;SDS011;1551;51.046;7.010;2022-10-16T03:19:11;3.80;;;1.90;;
3081;SDS011;1551;51.046;7.010;2022-10-16T03:22:00;5.15;;;1.80;;
3081;SDS011;1551;51.046;7.010;2022-10-16T03:24:49;3.85;;;1.95;;
3081;SDS011;1551;51.046;7.010;2022-10-16T03:27:38;6.10;;;1.85;;
3081;SDS011;1551;51.046;7.010;2022-10-16T03:30:27;3.35;;;1.73;;
3081;SDS011;1551;51.046;7.010;2022-10-16T03:33:16;2.40;;;1.60;;
3081;SDS011;1551;51.046;7.010;2022-10-16T03:36:05;3.60;;;1.90;;
3081;SDS011;1551;51.046;7.010;2022-10-16T03:38:54;3.10;;;1.60;;
3081;SDS011;1551;51.046;7.010;2022-10-16T03:41:43;4.60;;;2.38;;
3081;SDS011;1551;51.046;7.010;2022-10-16T03:44:32;2.58;;;1.70;;
3081;SDS011;1551;51.046;7.010;2022-10-16T03:47:21;3.50;;;1.70;;
3081;SDS011;1551;51.046;7.010;2022-10-16T03:50:11;2.50;;;1.70;;
3081;SDS011;1551;51.046;7.010;2022-10-16T03:53:00;4.07;;;1.90;;
3081;SDS011;1551;51.046;7.010;2022-10-16T03:55:49;3.30;;;2.10;;
3081;SDS011;1551;51.046;7.010;2022-10-16T03:58:38;2.20;;;1.60;;
3081;SDS011;1551;51.046;7.010;2022-10-16T04:01:27;2.15;;;1.80;;
3081;SDS011;1551;51.046;7.010;2022-10-16T04:04:16;2.90;;;1.70;;
3081;SDS011;1551;51.046;7.010;2022-10-16T04:07:05;1.90;;;1.40;;
3081;SDS011;1551;51.046;7.010;2022-10-16T04:09:54;3.20;;;1.70;;
3081;SDS011;1551;51.046;7.010;2022-10-16T04:12:43;2.05;;;1.50;;
3081;SDS011;1551;51.046;7.010;2022-10-16T04:15:32;2.67;;;1.65;;
3081;SDS011;1551;51.046;7.010;2022-10-16T04:18:21;3.15;;;1.83;;
3081;SDS011;1551;51.046;7.010;2022-10-16T04:21:10;3.40;;;1.70;;
3081;SDS011;1551;51.046;7.010;2022-10-16T04:23:59;3.40;;;1.90;;
3081;SDS011;1551;51.046;7.010;2022-10-16T04:26:48;2.85;;;1.65;;
3081;SDS011;1551;51.046;7.010;2022-10-16T04:29:37;2.70;;;1.70;;
3081;SDS011;1551;51.046;7.010;2022-10-16T04:32:26;4.30;;;2.30;;
3081;SDS011;1551;51.046;7.010;2022-10-16T04:35:15;7.55;;;1.85;;
3081;SDS011;1551;51.046;7.010;2022-10-16T04:38:08;3.20;;;2.50;;
3081;SDS011;1551;51.046;7.010;2022-10-16T04:40:57;3.53;;;1.83;;
3081;SDS011;1551;51.046;7.010;2022-10-16T04:43:46;3.77;;;1.90;;
3081;SDS011;1551;51.046;7.010;2022-10-16T04:46:35;1.85;;;1.30;;
3081;SDS011;1551;51.046;7.010;2022-10-16T04:49:24;3.20;;;2.00;;
3081;SDS011;1551;51.046;7.010;2022-10-16T04:52:13;3.35;;;1.90;;
3081;SDS011;1551;51.046;7.010;2022-10-16T04:55:02;2.88;;;1.50;;
3081;SDS011;1551;51.046;7.010;2022-10-16T04:57:51;2.30;;;1.35;;
3081;SDS011;1551;51.046;7.010;2022-10-16T05:00:40;3.40;;;1.60;;
3081;SDS011;1551;51.046;7.010;2022-10-16T05:03:29;2.10;;;1.40;;
3081;SDS011;1551;51.046;7.010;2022-10-16T05:06:18;2.10;;;1.20;;
3081;SDS011;1551;51.046;7.010;2022-10-16T05:09:07;2.80;;;1.40;;
3081;SDS011;1551;51.046;7.010;2022-10-16T05:11:56;1.90;;;1.40;;
3081;SDS011;1551;51.046;7.010;2022-10-16T05:14:45;3.00;;;1.40;;
3081;SDS011;1551;51.046;7.010;2022-10-16T05:17:34;2.03;;;1.38;;
3081;SDS011;1551;51.046;7.010;2022-10-16T05:20:23;4.40;;;2.05;;
3081;SDS011;1551;51.046;7.010;2022-10-16T05:23:12;2.90;;;1.50;;
3081;SDS011;1551;51.046;7.010;2022-10-16T05:26:01;3.25;;;1.67;;
3081;SDS011;1551;51.046;7.010;2022-10-16T05:28:50;2.60;;;1.27;;
3081;SDS011;1551;51.046;7.010;2022-10-16T05:31:39;2.30;;;1.70;;
3081;SDS011;1551;51.046;7.010;2022-10-16T05:34:28;4.40;;;1.65;;
3081;SDS011;1551;51.046;7.010;2022-10-16T05:37:17;3.67;;;2.65;;
3081;SDS011;1551;51.046;7.010;2022-10-16T05:40:06;7.37;;;5.23;;
3081;SDS011;1551;51.046;7.010;2022-10-16T05:42:56;5.30;;;4.80;;
3081;SDS011;1551;51.046;7.010;2022-10-16T05:45:52;3.03;;;1.90;;
3081;SDS011;1551;51.046;7.010;2022-10-16T05:48:51;2.10;;;1.60;;
3081;SDS011;1551;51.046;7.010;2022-10-16T05:51:41;3.70;;;1.30;;
3081;SDS011;1551;51.046;7.010;2022-10-16T05:54:30;3.83;;;1.70;;
3081;SDS011;1551;51.046;7.010;2022-10-16T05:57:19;3.42;;;1.75;;
3081;SDS011;1551;51.046;7.010;2022-10-16T06:00:08;2.30;;;1.60;;
3081;SDS011;1551;51.046;7.010;2022-10-16T06:03:04;2.92;;;1.60;;
3081;SDS011;1551;51.046;7.010;2022-10-16T06:05:55;2.50;;;1.40;;
3081;SDS011;1551;51.046;7.010;2022-10-16T06:08:44;3.42;;;1.58;;
3081;SDS011;1551;51.046;7.010;2022-10-16T06:11:34;2.58;;;1.30;;
3081;SDS011;1551;51.046;7.010;2022-10-16T06:14:23;3.22;;;1.95;;
3081;SDS011;1551;51.046;7.010;2022-10-16T06:17:12;4.18;;;2.00;;
3081;SDS011;1551;51.046;7.010;2022-10-16T06:20:02;2.60;;;1.70;;
3081;SDS011;1551;51.046;7.010;2022-10-16T06:22:52;2.70;;;1.70;;
3081;SDS011;1551;51.046;7.010;2022-10-16T06:25:41;4.03;;;1.65;;
3081;SDS011;1551;51.046;7.010;2022-10-16T06:28:30;2.67;;;1.70;;
3081;SDS011;1551;51.046;7.010;2022-10-16T06:31:19;2.93;;;1.40;;
3081;SDS011;1551;51.046;7.010;2022-10-16T06:34:09;3.00;;;1.70;;
3081;SDS011;1551;51.046;7.010;2022-10-16T06:37:00;5.43;;;1.67;;
3081;SDS011;1551;51.046;7.010;2022-10-16T06:39:49;3.15;;;1.95;;
3081;SDS011;1551;51.046;7.010;2022-10-16T06:42:38;2.57;;;1.60;;
3081;SDS011;1551;51.046;7.010;2022-10-16T06:45:27;3.00;;;1.50;;
3081;SDS011;1551;51.046;7.010;2022-10-16T06:48:16;3.53;;;1.70;;
3081;SDS011;1551;51.046;7.010;2022-10-16T06:51:06;3.97;;;2.53;;
3081;SDS011;1551;51.046;7.010;2022-10-16T06:53:58;3.40;;;2.75;;
3081;SDS011;1551;51.046;7.010;2022-10-16T06:56:47;3.40;;;2.00;;
3081;SDS011;1551;51.046;7.010;2022-10-16T06:59:36;4.53;;;1.80;;
3081;SDS011;1551;51.046;7.010;2022-10-16T07:02:25;2.33;;;1.83;;
3081;SDS011;1551;51.046;7.010;2022-10-16T07:05:14;3.03;;;1.90;;
3081;SDS011;1551;51.046;7.010;2022-10-16T07:08:03;2.30;;;1.70;;
3081;SDS011;1551;51.046;7.010;2022-10-16T07:11:00;5.18;;;1.80;;
3081;SDS011;1551;51.046;7.010;2022-10-16T07:13:50;2.97;;;2.00;;
3081;SDS011;1551;51.046;7.010;2022-10-16T07:16:40;2.58;;;1.70;;
3081;SDS011;1551;51.046;7.010;2022-10-16T07:19:29;4.22;;;1.60;;
3081;SDS011;1551;51.046;7.010;2022-10-16T07:22:18;4.70;;;2.00;;
3081;SDS011;1551;51.046;7.010;2022-10-16T07:25:07;2.33;;;1.80;;
3081;SDS011;1551;51.046;7.010;2022-10-16T07:27:57;2.10;;;1.50;;
3081;SDS011;1551;51.046;7.010;2022-10-16T07:30:46;3.63;;;2.05;;
3081;SDS011;1551;51.046;7.010;2022-10-16T07:33:35;2.00;;;1.40;;
3081;SDS011;1551;51.046;7.010;2022-10-16T07:36:23;1.83;;;1.63;;
3081;SDS011;1551;51.046;7.010;2022-10-16T07:39:12;2.90;;;1.70;;
3081;SDS011;1551;51.046;7.010;2022-10-16T07:42:01;2.72;;;1.80;;
3081;SDS011;1551;51.046;7.010;2022-10-16T07:44:50;4.30;;;1.83;;
3081;SDS011;1551;51.046;7.010;2022-10-16T07:47:39;5.10;;;2.20;;
3081;SDS011;1551;51.046;7.010;2022-10-16T07:50:28;2.95;;;1.30;;
3081;SDS011;1551;51.046;7.010;2022-10-16T07:53:17;3.20;;;1.57;;
3081;SDS011;1551;51.046;7.010;2022-10-16T07:56:06;3.95;;;1.60;;
3081;SDS011;1551;51.046;7.010;2022-10-16T07:58:56;2.80;;;1.40;;
3081;SDS011;1551;51.046;7.010;2022-10-16T08:01:45;3.20;;;1.90;;
3081;SDS011;1551;51.046;7.010;2022-10-16T08:04:34;2.20;;;1.60;;
3081;SDS011;1551;51.046;7.010;2022-10-16T08:07:23;3.63;;;1.90;;
3081;SDS011;1551;51.046;7.010;2022-10-16T08:10:15;4.13;;;3.78;;
3081;SDS011;1551;51.046;7.010;2022-10-16T08:13:06;3.37;;;1.97;;
3081;SDS011;1551;51.046;7.010;2022-10-16T08:15:55;2.20;;;1.60;;
3081;SDS011;1551;51.046;7.010;2022-10-16T08:18:44;2.80;;;1.50;;
3081;SDS011;1551;51.046;7.010;2022-10-16T08:21:32;2.55;;;1.30;;
3081;SDS011;1551;51.046;7.010;2022-10-16T08:24:21;3.58;;;1.60;;
3081;SDS011;1551;51.046;7.010;2022-10-16T08:27:10;3.13;;;1.20;;
3081;SDS011;1551;51.046;7.010;2022-10-16T08:29:59;2.30;;;1.45;;
3081;SDS011;1551;51.046;7.010;2022-10-16T08:32:49;3.10;;;1.58;;
3081;SDS011;1551;51.046;7.010;2022-10-16T08:35:38;2.00;;;1.40;;
3081;SDS011;1551;51.046;7.010;2022-10-16T08:38:27;1.73;;;1.20;;
3081;SDS011;1551;51.046;7.010;2022-10-16T08:41:26;1.80;;;1.10;;
3081;SDS011;1551;51.046;7.010;2022-10-16T08:47:26;2.38;;;1.27;;
3081;SDS011;1551;51.046;7.010;2022-10-16T08:50:31;2.00;;;1.10;;
3081;SDS011;1551;51.046;7.010;2022-10-16T08:53:24;3.60;;;1.40;;
3081;SDS011;1551;51.046;7.010;2022-10-16T08:56:19;2.33;;;1.35;;
3081;SDS011;1551;51.046;7.010;2022-10-16T08:59:19;2.77;;;1.13;;
3081;SDS011;1551;51.046;7.010;2022-10-16T09:02:30;1.88;;;1.15;;
3081;SDS011;1551;51.046;7.010;2022-10-16T09:18:11;3.97;;;1.30;;
3081;SDS011;1551;51.046;7.010;2022-10-16T09:21:09;2.40;;;1.20;;
3081;SDS011;1551;51.046;7.010;2022-10-16T09:24:25;2.50;;;1.00;;
3081;SDS011;1551;51.046;7.010;2022-10-16T09:27:15;3.63;;;1.40;;
3081;SDS011;1551;51.046;7.010;2022-10-16T09:30:15;2.70;;;1.30;;
3081;SDS011;1551;51.046;7.010;2022-10-16T09:33:06;4.20;;;1.13;;
3081;SDS011;1551;51.046;7.010;2022-10-16T09:35:58;3.00;;;0.90;;
3081;SDS011;1551;51.046;7.010;2022-10-16T09:38:47;2.93;;;0.90;;
3081;SDS011;1551;51.046;7.010;2022-10-16T09:41:42;2.83;;;1.00;;
3081;SDS011;1551;51.046;7.010;2022-10-16T09:44:34;2.00;;;0.90;;
3081;SDS011;1551;51.046;7.010;2022-10-16T09:47:25;2.15;;;0.90;;
3081;SDS011;1551;51.046;7.010;2022-10-16T09:50:26;2.28;;;1.20;;
3081;SDS011;1551;51.046;7.010;2022-10-16T09:53:16;3.33;;;0.93;;
3081;SDS011;1551;51.046;7.010;2022-10-16T09:56:09;2.00;;;0.80;;
3081;SDS011;1551;51.046;7.010;2022-10-16T10:02:04;3.55;;;0.70;;
3081;SDS011;1551;51.046;7.010;2022-10-16T10:05:02;1.80;;;0.82;;
3081;SDS011;1551;51.046;7.010;2022-10-16T10:07:58;2.20;;;0.90;;
3081;SDS011;1551;51.046;7.010;2022-10-16T10:10:49;2.58;;;0.80;;
3081;SDS011;1551;51.046;7.010;2022-10-16T10:13:38;1.30;;;0.50;;
3081;SDS011;1551;51.046;7.010;2022-10-16T10:16:27;1.60;;;0.70;;
3081;SDS011;1551;51.046;7.010;2022-10-16T10:19:17;1.40;;;0.70;;
3081;SDS011;1551;51.046;7.010;2022-10-16T10:32:09;1.88;;;0.70;;
3081;SDS011;1551;51.046;7.010;2022-10-16T10:35:15;1.30;;;0.60;;
3081;SDS011;1551;51.046;7.010;2022-10-16T10:41:12;1.98;;;0.80;;
3081;SDS011;1551;51.046;7.010;2022-10-16T10:56:56;1.60;;;0.70;;
3081;SDS011;1551;51.046;7.010;2022-10-16T10:59:54;2.53;;;0.70;;
3081;SDS011;1551;51.046;7.010;2022-10-16T11:08:59;2.08;;;0.80;;
3081;SDS011;1551;51.046;7.010;2022-10-16T11:12:05;2.10;;;0.80;;
3081;SDS011;1551;51.046;7.010;2022-10-16T11:15:12;2.70;;;0.90;;
3081;SDS011;1551;51.046;7.010;2022-10-16T11:18:19;1.67;;;0.70;;
3081;SDS011;1551;51.046;7.010;2022-10-16T11:21:12;1.90;;;0.80;;
3081;SDS011;1551;51.046;7.010;2022-10-16T11:27:39;4.80;;;0.70;;
3081;SDS011;1551;51.046;7.010;2022-10-16T11:30:39;1.80;;;0.80;;
3081;SDS011;1551;51.046;7.010;2022-10-16T11:36:38;3.42;;;0.80;;
3081;SDS011;1551;51.046;7.010;2022-10-16T11:39:31;2.10;;;0.90;;
3081;SDS011;1551;51.046;7.010;2022-10-16T11:42:27;2.40;;;0.80;;
3081;SDS011;1551;51.046;7.010;2022-10-16T11:48:31;2.13;;;0.65;;
3081;SDS011;1551;51.046;7.010;2022-10-16T11:51:38;1.80;;;0.77;;
3081;SDS011;1551;51.046;7.010;2022-10-16T11:54:50;1.70;;;0.70;;
3081;SDS011;1551;51.046;7.010;2022-10-16T11:57:46;2.08;;;0.80;;
3081;SDS011;1551;51.046;7.010;2022-10-16T12:04:02;3.10;;;0.80;;
3081;SDS011;1551;51.046;7.010;2022-10-16T12:07:05;2.23;;;1.20;;
3081;SDS011;1551;51.046;7.010;2022-10-16T12:09:58;3.92;;;1.48;;
3081;SDS011;1551;51.046;7.010;2022-10-16T12:12:59;1.70;;;0.87;;
3081;SDS011;1551;51.046;7.010;2022-10-16T12:15:48;1.60;;;0.60;;
3081;SDS011;1551;51.046;7.010;2022-10-16T12:18:37;2.40;;;0.80;;
3081;SDS011;1551;51.046;7.010;2022-10-16T12:21:30;4.30;;;2.10;;
3081;SDS011;1551;51.046;7.010;2022-10-16T12:24:39;2.15;;;0.80;;
3081;SDS011;1551;51.046;7.010;2022-10-16T12:27:31;2.60;;;0.70;;
3081;SDS011;1551;51.046;7.010;2022-10-16T12:30:22;1.90;;;0.60;;
3081;SDS011;1551;51.046;7.010;2022-10-16T12:33:19;2.40;;;0.70;;
3081;SDS011;1551;51.046;7.010;2022-10-16T12:36:15;2.70;;;1.40;;
3081;SDS011;1551;51.046;7.010;2022-10-16T12:39:27;2.93;;;0.93;;
3081;SDS011;1551;51.046;7.010;2022-10-16T12:45:48;2.10;;;1.08;;
3081;SDS011;1551;51.046;7.010;2022-10-16T12:48:30;1.70;;;0.70;;
3081;SDS011;1551;51.046;7.010;2022-10-16T12:51:24;1.42;;;0.65;;
3081;SDS011;1551;51.046;7.010;2022-10-16T12:54:34;2.80;;;1.10;;
3081;SDS011;1551;51.046;7.010;2022-10-16T13:00:39;1.23;;;0.60;;
3081;SDS011;1551;51.046;7.010;2022-10-16T13:07:15;1.60;;;0.65;;
3081;SDS011;1551;51.046;7.010;2022-10-16T13:10:23;1.30;;;0.60;;
3081;SDS011;1551;51.046;7.010;2022-10-16T13:13:37;1.73;;;0.65;;
3081;SDS011;1551;51.046;7.010;2022-10-16T13:16:45;1.95;;;0.50;;
3081;SDS011;1551;51.046;7.010;2022-10-16T13:20:04;1.75;;;0.70;;
3081;SDS011;1551;51.046;7.010;2022-10-16T13:26:25;2.90;;;0.80;;
3081;SDS011;1551;51.046;7.010;2022-10-16T13:29:32;2.92;;;0.80;;
3081;SDS011;1551;51.046;7.010;2022-10-16T13:32:22;1.30;;;0.50;;
3081;SDS011;1551;51.046;7.010;2022-10-16T13:35:21;2.40;;;0.82;;
3081;SDS011;1551;51.046;7.010;2022-10-16T13:38:20;3.10;;;0.80;;
3081;SDS011;1551;51.046;7.010;2022-10-16T13:41:15;1.60;;;0.70;;
3081;SDS011;1551;51.046;7.010;2022-10-16T13:44:17;3.20;;;0.80;;
3081;SDS011;1551;51.046;7.010;2022-10-16T13:47:16;2.60;;;0.80;;
3081;SDS011;1551;51.046;7.010;2022-10-16T13:50:11;1.73;;;0.80;;
3081;SDS011;1551;51.046;7.010;2022-10-16T13:53:13;3.03;;;0.75;;
3081;SDS011;1551;51.046;7.010;2022-10-16T13:56:03;2.90;;;0.80;;
3081;SDS011;1551;51.046;7.010;2022-10-16T13:59:05;1.55;;;0.80;;
3081;SDS011;1551;51.046;7.010;2022-10-16T14:01:56;1.50;;;0.80;;
3081;SDS011;1551;51.046;7.010;2022-10-16T14:04:46;1.80;;;0.50;;
3081;SDS011;1551;51.046;7.010;2022-10-16T14:07:36;1.43;;;0.60;;
3081;SDS011;1551;51.046;7.010;2022-10-16T14:10:27;1.80;;;0.90;;
3081;SDS011;1551;51.046;7.010;2022-10-16T14:13:20;1.50;;;0.50;;
3081;SDS011;1551;51.046;7.010;2022-10-16T14:16:18;1.77;;;0.60;;
3081;SDS011;1551;51.046;7.010;2022-10-16T14:19:15;1.70;;;0.60;;
3081;SDS011;1551;51.046;7.010;2022-10-16T14:22:57;1.90;;;0.55;;
3081;SDS011;1551;51.046;7.010;2022-10-16T14:28:19;2.20;;;0.90;;
3081;SDS011;1551;51.046;7.010;2022-10-16T14:31:23;1.98;;;0.90;;
3081;SDS011;1551;51.046;7.010;2022-10-16T14:34:25;2.00;;;0.70;;
3081;SDS011;1551;51.046;7.010;2022-10-16T14:37:26;3.03;;;0.75;;
3081;SDS011;1551;51.046;7.010;2022-10-16T14:40:16;2.60;;;1.07;;
3081;SDS011;1551;51.046;7.010;2022-10-16T14:43:14;1.98;;;1.00;;
3081;SDS011;1551;51.046;7.010;2022-10-16T14:46:18;2.83;;;1.10;;
3081;SDS011;1551;51.046;7.010;2022-10-16T14:51:58;1.50;;;0.70;;
3081;SDS011;1551;51.046;7.010;2022-10-16T14:54:50;1.90;;;0.63;;
3081;SDS011;1551;51.046;7.010;2022-10-16T14:57:43;1.88;;;0.70;;
3081;SDS011;1551;51.046;7.010;2022-10-16T15:00:34;3.30;;;0.90;;
3081;SDS011;1551;51.046;7.010;2022-10-16T15:03:23;4.00;;;0.80;;
3081;SDS011;1551;51.046;7.010;2022-10-16T15:06:13;2.60;;;0.70;;
3081;SDS011;1551;51.046;7.010;2022-10-16T15:09:03;2.20;;;0.80;;
3081;SDS011;1551;51.046;7.010;2022-10-16T15:11:53;1.80;;;0.80;;
3081;SDS011;1551;51.046;7.010;2022-10-16T15:14:41;2.88;;;0.90;;
3081;SDS011;1551;51.046;7.010;2022-10-16T15:17:30;3.10;;;0.82;;
3081;SDS011;1551;51.046;7.010;2022-10-16T15:20:19;2.00;;;0.93;;
3081;SDS011;1551;51.046;7.010;2022-10-16T15:23:16;3.80;;;0.90;;
3081;SDS011;1551;51.046;7.010;2022-10-16T15:26:07;2.08;;;0.93;;
3081;SDS011;1551;51.046;7.010;2022-10-16T15:28:56;2.90;;;1.10;;
3081;SDS011;1551;51.046;7.010;2022-10-16T15:31:46;2.00;;;0.90;;
3081;SDS011;1551;51.046;7.010;2022-10-16T15:34:36;2.30;;;1.10;;
3081;SDS011;1551;51.046;7.010;2022-10-16T15:37:25;1.60;;;0.90;;
3081;SDS011;1551;51.046;7.010;2022-10-16T15:40:14;3.03;;;1.65;;
3081;SDS011;1551;51.046;7.010;2022-10-16T15:43:05;2.45;;;1.10;;
3081;SDS011;1551;51.046;7.010;2022-10-16T15:46:04;2.22;;;1.00;;
3081;SDS011;1551;51.046;7.010;2022-10-16T15:48:55;1.70;;;1.00;;
3081;SDS011;1551;51.046;7.010;2022-10-16T15:51:48;2.30;;;1.20;;
3081;SDS011;1551;51.046;7.010;2022-10-16T15:54:37;2.53;;;1.30;;
3081;SDS011;1551;51.046;7.010;2022-10-16T15:57:27;2.70;;;1.10;;
3081;SDS011;1551;51.046;7.010;2022-10-16T16:00:18;3.35;;;1.20;;
3081;SDS011;1551;51.046;7.010;2022-10-16T16:03:12;2.15;;;0.93;;
3081;SDS011;1551;51.046;7.010;2022-10-16T16:06:05;4.38;;;1.35;;
3081;SDS011;1551;51.046;7.010;2022-10-16T16:08:56;3.50;;;0.90;;
3081;SDS011;1551;51.046;7.010;2022-10-16T16:11:45;2.00;;;1.02;;
3081;SDS011;1551;51.046;7.010;2022-10-16T16:14:34;2.50;;;1.00;;
3081;SDS011;1551;51.046;7.010;2022-10-16T16:17:24;1.73;;;0.95;;
3081;SDS011;1551;51.046;7.010;2022-10-16T16:20:13;2.80;;;1.20;;
3081;SDS011;1551;51.046;7.010;2022-10-16T16:23:02;2.05;;;1.13;;
3081;SDS011;1551;51.046;7.010;2022-10-16T16:28:58;2.72;;;1.20;;
3081;SDS011;1551;51.046;7.010;2022-10-16T16:31:47;2.30;;;1.20;;
3081;SDS011;1551;51.046;7.010;2022-10-16T16:34:36;1.98;;;1.30;;
3081;SDS011;1551;51.046;7.010;2022-10-16T16:37:25;3.10;;;1.30;;
3081;SDS011;1551;51.046;7.010;2022-10-16T16:40:14;1.95;;;1.20;;
3081;SDS011;1551;51.046;7.010;2022-10-16T16:43:03;3.40;;;1.40;;
3081;SDS011;1551;51.046;7.010;2022-10-16T16:45:53;3.50;;;1.80;;
3081;SDS011;1551;51.046;7.010;2022-10-16T16:48:42;3.50;;;1.80;;
3081;SDS011;1551;51.046;7.010;2022-10-16T16:51:32;3.28;;;1.80;;
3081;SDS011;1551;51.046;7.010;2022-10-16T16:54:21;3.60;;;1.50;;
3081;SDS011;1551;51.046;7.010;2022-10-16T16:57:10;4.80;;;2.92;;
3081;SDS011;1551;51.046;7.010;2022-10-16T16:59:59;3.42;;;1.42;;
3081;SDS011;1551;51.046;7.010;2022-10-16T17:02:48;2.50;;;1.13;;
3081;SDS011;1551;51.046;7.010;2022-10-16T17:05:38;2.40;;;1.10;;
3081;SDS011;1551;51.046;7.010;2022-10-16T17:08:27;3.47;;;1.30;;
3081;SDS011;1551;51.046;7.010;2022-10-16T17:11:18;1.90;;;1.25;;
3081;SDS011;1551;51.046;7.010;2022-10-16T17:14:11;2.53;;;1.10;;
3081;SDS011;1551;51.046;7.010;2022-10-16T17:17:01;3.08;;;1.02;;
3081;SDS011;1551;51.046;7.010;2022-10-16T17:19:50;2.92;;;1.27;;
3081;SDS011;1551;51.046;7.010;2022-10-16T17:22:40;2.65;;;1.10;;
3081;SDS011;1551;51.046;7.010;2022-10-16T17:25:29;2.50;;;1.20;;
3081;SDS011;1551;51.046;7.010;2022-10-16T17:28:18;3.87;;;1.30;;
3081;SDS011;1551;51.046;7.010;2022-10-16T17:31:49;2.20;;;1.40;;
3081;SDS011;1551;51.046;7.010;2022-10-16T17:34:21;1.87;;;1.17;;
3081;SDS011;1551;51.046;7.010;2022-10-16T17:37:09;2.05;;;1.20;;
3081;SDS011;1551;51.046;7.010;2022-10-16T17:39:59;2.25;;;1.20;;
3081;SDS011;1551;51.046;7.010;2022-10-16T17:42:48;1.60;;;1.00;;
3081;SDS011;1551;51.046;7.010;2022-10-16T17:45:37;2.45;;;1.20;;
3081;SDS011;1551;51.046;7.010;2022-10-16T17:48:27;2.65;;;1.00;;
3081;SDS011;1551;51.046;7.010;2022-10-16T17:51:18;3.30;;;1.10;;
3081;SDS011;1551;51.046;7.010;2022-10-16T17:54:09;1.80;;;1.00;;
3081;SDS011;1551;51.046;7.010;2022-10-16T17:56:59;2.35;;;1.48;;
3081;SDS011;1551;51.046;7.010;2022-10-16T17:59:48;3.05;;;1.40;;
3081;SDS011;1551;51.046;7.010;2022-10-16T18:02:37;3.47;;;1.30;;
3081;SDS011;1551;51.046;7.010;2022-10-16T18:05:29;2.60;;;1.33;;
3081;SDS011;1551;51.046;7.010;2022-10-16T18:08:18;3.80;;;1.35;;
3081;SDS011;1551;51.046;7.010;2022-10-16T18:11:08;2.70;;;1.90;;
3081;SDS011;1551;51.046;7.010;2022-10-16T18:13:58;4.47;;;2.17;;
3081;SDS011;1551;51.046;7.010;2022-10-16T18:16:47;3.22;;;2.10;;
3081;SDS011;1551;51.046;7.010;2022-10-16T18:19:37;4.35;;;2.50;;
3081;SDS011;1551;51.046;7.010;2022-10-16T18:22:26;3.03;;;1.80;;
3081;SDS011;1551;51.046;7.010;2022-10-16T18:25:14;3.53;;;2.00;;
3081;SDS011;1551;51.046;7.010;2022-10-16T18:28:04;2.00;;;1.40;;
3081;SDS011;1551;51.046;7.010;2022-10-16T18:30:58;3.37;;;1.30;;
3081;SDS011;1551;51.046;7.010;2022-10-16T18:33:49;5.10;;;1.88;;
3081;SDS011;1551;51.046;7.010;2022-10-16T18:36:38;4.20;;;2.03;;
3081;SDS011;1551;51.046;7.010;2022-10-16T18:39:27;3.78;;;1.48;;
3081;SDS011;1551;51.046;7.010;2022-10-16T18:42:17;1.83;;;1.25;;
3081;SDS011;1551;51.046;7.010;2022-10-16T18:45:06;2.30;;;1.20;;
3081;SDS011;1551;51.046;7.010;2022-10-16T18:47:55;2.33;;;1.30;;
3081;SDS011;1551;51.046;7.010;2022-10-16T18:50:46;3.25;;;1.20;;
3081;SDS011;1551;51.046;7.010;2022-10-16T18:53:36;1.90;;;1.20;;
3081;SDS011;1551;51.046;7.010;2022-10-16T18:56:27;2.30;;;1.50;;
3081;SDS011;1551;51.046;7.010;2022-10-16T18:59:19;3.35;;;1.50;;
3081;SDS011;1551;51.046;7.010;2022-10-16T19:02:09;2.08;;;1.20;;
3081;SDS011;1551;51.046;7.010;2022-10-16T19:05:00;2.20;;;1.20;;
3081;SDS011;1551;51.046;7.010;2022-10-16T19:07:49;2.10;;;1.20;;
3081;SDS011;1551;51.046;7.010;2022-10-16T19:10:38;3.30;;;1.50;;
3081;SDS011;1551;51.046;7.010;2022-10-16T19:13:29;2.10;;;1.50;;
3081;SDS011;1551;51.046;7.010;2022-10-16T19:16:19;2.42;;;1.50;;
3081;SDS011;1551;51.046;7.010;2022-10-16T19:19:12;2.60;;;1.60;;
3081;SDS011;1551;51.046;7.010;2022-10-16T19:22:02;2.88;;;1.30;;
3081;SDS011;1551;51.046;7.010;2022-10-16T19:25:18;3.40;;;1.70;;